Time;durP1;ratioP1;P1;durP2;ratioP2;P2;SDS_P1;SDS_P2;PMS_P1;PMS_P2;Temp;Humidity;BMP_temperature;BMP_pressure;BME280_temperature;BME280_humidity;BME280_pressure;Samples;Min_cycle;Max_cycle;Signal;HPM_P1;HPM_P2
2021/08/26 00:01:01;;;;;;;;;;;15.80;99.90;;;;;;5096054;28;19923;-80
2021/08/26 00:06:18;;;;;;;;;;;15.80;99.90;;;;;;5087543;28;19974;-84
2021/08/26 00:08:46;;;;;;;;;;;15.90;99.90;;;;;;5071742;28;20279;-85
2021/08/26 00:11:12;;;;;;;;;;;15.90;99.90;;;;;;5089782;28;19919;-81
2021/08/26 00:13:39;;;;;;;;;;;15.80;99.90;;;;;;5089804;28;19918;-84
2021/08/26 00:16:04;;;;;;;;;;;15.80;99.90;;;;;;5089140;28;20313;-80
2021/08/26 00:18:30;;;;;;;;;;;15.90;99.90;;;;;;5078324;28;19920;-86
2021/08/26 00:20:56;;;;;;;;;;;15.80;99.90;;;;;;5064989;28;19955;-82
2021/08/26 00:23:22;;;;;;;;;;;15.80;99.90;;;;;;5074394;28;20255;-85
2021/08/26 00:25:48;;;;;;;;;;;15.80;99.90;;;;;;5077861;28;19919;-85
2021/08/26 00:28:13;;;;;;;;;;;15.80;99.90;;;;;;5091784;28;19915;-83
2021/08/26 00:30:39;;;;;;;;;;;15.80;99.90;;;;;;5078690;28;20238;-83
2021/08/26 00:33:04;;;;;;;;;;;15.80;99.90;;;;;;5079649;28;19959;-84
2021/08/26 00:35:30;;;;;;;;;;;15.70;99.90;;;;;;5078620;28;20196;-86
2021/08/26 00:37:56;;;;;;;;;;;15.80;99.90;;;;;;5086470;28;20098;-85
2021/08/26 00:40:21;;;;;;;;;;;15.70;99.90;;;;;;5092301;28;19915;-81
2021/08/26 00:42:47;;;;;;;;;;;15.70;99.90;;;;;;5089531;28;19912;-84
2021/08/26 00:45:13;;;;;;;;;;;15.80;99.90;;;;;;5092770;28;19947;-82
2021/08/26 00:47:41;;;;;;;;;;;15.80;99.90;;;;;;5073641;28;19986;-83
2021/08/26 00:50:07;;;;;;;;;;;15.80;99.90;;;;;;5071612;28;19915;-83
2021/08/26 00:52:35;;;;;;;;;;;15.90;99.90;;;;;;5091006;28;19915;-83
2021/08/26 00:55:01;;;;;;;;;;;15.80;99.90;;;;;;5086855;28;19908;-82
2021/08/26 00:57:26;;;;;;;;;;;15.80;99.90;;;;;;5069451;28;20378;-85
2021/08/26 00:59:53;;;;;;;;;;;15.70;99.90;;;;;;5073508;28;19962;-84
2021/08/26 01:02:19;;;;;;;;;;;15.70;99.90;;;;;;5069667;28;20010;-82
2021/08/26 01:04:44;;;;;;;;;;;15.70;99.90;;;;;;5066334;28;19956;-81
2021/08/26 01:07:18;;;;;;;;;;;15.60;99.90;;;;;;5083481;28;19912;-83
2021/08/26 01:09:46;;;;;;;;;;;15.70;99.90;;;;;;5072123;28;20266;-85
2021/08/26 01:12:17;;;;;;;;;;;15.60;99.90;;;;;;5070207;28;20262;-87
2021/08/26 01:14:43;;;;;;;;;;;15.50;99.90;;;;;;5071089;28;19954;-84
2021/08/26 01:17:09;;;;;;;;;;;15.50;99.90;;;;;;5071582;28;19965;-79
2021/08/26 01:19:34;;;;;;;;;;;15.50;99.90;;;;;;5090234;28;20002;-81
2021/08/26 01:22:00;;;;;;;;;;;15.50;99.90;;;;;;5068937;28;19916;-83
2021/08/26 01:24:28;;;;;;;;;;;15.60;99.90;;;;;;5066366;28;19955;-81
2021/08/26 01:26:55;;;;;;;;;;;15.60;99.90;;;;;;5068876;28;19919;-84
2021/08/26 01:29:21;;;;;;;;;;;15.60;99.90;;;;;;5064630;28;19999;-82
2021/08/26 01:31:47;;;;;;;;;;;15.50;99.90;;;;;;5080536;28;19985;-78
2021/08/26 01:34:17;;;;;;;;;;;15.50;99.90;;;;;;5068202;28;20237;-79
2021/08/26 01:36:43;;;;;;;;;;;15.50;99.90;;;;;;5076601;28;19927;-79
2021/08/26 01:39:09;;;;;;;;;;;15.50;99.90;;;;;;5088974;28;19908;-80
2021/08/26 01:41:37;;;;;;;;;;;15.40;99.90;;;;;;5073381;28;19920;-84
2021/08/26 01:44:03;;;;;;;;;;;15.50;99.90;;;;;;5065885;28;19919;-81
2021/08/26 01:46:28;;;;;;;;;;;15.40;99.90;;;;;;5018629;28;2035709;-87
2021/08/26 01:48:54;;;;;;;;;;;15.40;99.90;;;;;;5071755;28;19947;-86
2021/08/26 01:51:19;;;;;;;;;;;15.40;99.90;;;;;;5086405;28;20283;-80
2021/08/26 01:53:45;;;;;;;;;;;15.30;99.90;;;;;;5075524;28;19916;-83
2021/08/26 01:56:10;;;;;;;;;;;15.30;99.90;;;;;;5088390;28;20299;-77
2021/08/26 01:58:36;;;;;;;;;;;15.30;99.90;;;;;;5091354;28;20366;-83
2021/08/26 02:01:01;;;;;;;;;;;15.30;99.90;;;;;;5077795;28;19909;-83
2021/08/26 02:03:27;;;;;;;;;;;15.30;99.90;;;;;;5090750;28;20214;-81
2021/08/26 02:05:53;;;;;;;;;;;15.30;99.90;;;;;;5077397;28;19924;-84
2021/08/26 02:08:18;;;;;;;;;;;15.30;99.90;;;;;;5070630;28;19915;-80
2021/08/26 02:10:44;;;;;;;;;;;15.20;99.90;;;;;;5070194;28;20188;-85
2021/08/26 02:13:09;;;;;;;;;;;15.20;99.90;;;;;;5095034;28;19978;-79
2021/08/26 02:15:35;;;;;;;;;;;15.20;99.90;;;;;;5093355;28;19916;-80
2021/08/26 02:18:00;;;;;;;;;;;15.20;99.90;;;;;;5084208;28;20262;-79
2021/08/26 02:20:26;;;;;;;;;;;15.10;99.90;;;;;;5073746;28;19919;-84
2021/08/26 02:22:51;;;;;;;;;;;15.10;99.90;;;;;;5072768;28;19912;-83
2021/08/26 02:25:17;;;;;;;;;;;15.10;99.90;;;;;;5087818;28;19912;-84
2021/08/26 02:27:43;;;;;;;;;;;15.10;99.90;;;;;;5078184;28;20247;-80
2021/08/26 02:30:09;;;;;;;;;;;15.10;99.90;;;;;;5090760;28;20333;-84
2021/08/26 02:32:35;;;;;;;;;;;15.10;99.90;;;;;;5073494;28;19943;-83
2021/08/26 02:35:01;;;;;;;;;;;15.10;99.90;;;;;;5077479;28;19987;-84
2021/08/26 02:37:27;;;;;;;;;;;15.00;99.90;;;;;;5090734;28;19992;-85
2021/08/26 02:39:52;;;;;;;;;;;15.00;99.90;;;;;;5074050;28;19912;-83
2021/08/26 02:42:18;;;;;;;;;;;15.00;99.90;;;;;;5069938;28;20262;-84
2021/08/26 02:44:44;;;;;;;;;;;15.00;99.90;;;;;;5082374;28;19915;-82
2021/08/26 02:47:09;;;;;;;;;;;15.00;99.90;;;;;;5050038;28;19942;-82
2021/08/26 02:49:37;;;;;;;;;;;15.00;99.90;;;;;;5068506;28;19917;-85
2021/08/26 02:52:03;;;;;;;;;;;15.00;99.90;;;;;;5052618;28;19913;-83
2021/08/26 02:54:28;;;;;;;;;;;15.00;99.90;;;;;;5063416;28;19913;-84
2021/08/26 02:56:54;;;;;;;;;;;15.10;99.90;;;;;;5069683;28;19915;-82
2021/08/26 02:59:19;;;;;;;;;;;15.00;99.90;;;;;;5074849;28;19916;-83
2021/08/26 03:01:45;;;;;;;;;;;15.00;99.90;;;;;;5061860;28;20230;-81
2021/08/26 03:04:10;;;;;;;;;;;15.00;99.90;;;;;;5068061;28;20011;-80
2021/08/26 03:06:36;;;;;;;;;;;15.00;99.90;;;;;;5062500;28;19917;-81
2021/08/26 03:09:02;;;;;;;;;;;15.00;99.90;;;;;;5065224;28;20234;-80
2021/08/26 03:11:27;;;;;;;;;;;15.00;99.90;;;;;;5078205;28;19908;-82
2021/08/26 03:13:53;;;;;;;;;;;15.00;99.90;;;;;;5051310;28;19913;-85
2021/08/26 03:16:18;;;;;;;;;;;15.00;99.90;;;;;;5062008;28;19919;-82
2021/08/26 03:18:44;;;;;;;;;;;15.00;99.90;;;;;;5043640;28;20309;-81
2021/08/26 03:21:09;;;;;;;;;;;15.00;99.90;;;;;;5060329;28;19908;-84
2021/08/26 03:23:35;;;;;;;;;;;15.00;99.90;;;;;;5070095;28;19924;-85
2021/08/26 03:26:00;;;;;;;;;;;15.00;99.90;;;;;;5056087;28;19913;-82
2021/08/26 03:28:26;;;;;;;;;;;15.00;99.90;;;;;;5060009;28;19964;-86
2021/08/26 03:30:52;;;;;;;;;;;15.00;99.90;;;;;;5044653;28;19912;-84
2021/08/26 03:33:17;;;;;;;;;;;15.00;99.90;;;;;;5056230;28;19967;-82
2021/08/26 03:35:43;;;;;;;;;;;15.00;99.90;;;;;;5067854;28;19947;-83
2021/08/26 03:38:08;;;;;;;;;;;15.00;99.90;;;;;;5046357;28;19912;-81
2021/08/26 03:40:34;;;;;;;;;;;15.00;99.90;;;;;;5061746;28;19909;-84
2021/08/26 03:42:59;;;;;;;;;;;15.00;99.90;;;;;;5058022;28;19970;-81
2021/08/26 03:45:25;;;;;;;;;;;15.00;99.90;;;;;;5096607;28;19920;-83
2021/08/26 03:47:51;;;;;;;;;;;15.00;99.90;;;;;;5085070;28;19923;-77
2021/08/26 03:50:17;;;;;;;;;;;15.00;99.90;;;;;;5104621;28;20206;-82
2021/08/26 03:52:42;;;;;;;;;;;15.00;99.90;;;;;;5074421;28;19919;-79
2021/08/26 03:55:08;;;;;;;;;;;15.00;99.90;;;;;;5079661;28;19912;-80
2021/08/26 03:57:34;;;;;;;;;;;15.10;99.90;;;;;;5056820;28;19920;-84
2021/08/26 03:59:59;;;;;;;;;;;15.10;99.90;;;;;;5063029;28;19912;-85
2021/08/26 04:02:25;;;;;;;;;;;15.10;99.90;;;;;;5075039;28;19920;-83
2021/08/26 04:04:50;;;;;;;;;;;15.10;99.90;;;;;;5070109;28;19917;-81
2021/08/26 04:07:18;;;;;;;;;;;15.10;99.90;;;;;;5073956;28;19962;-82
2021/08/26 04:09:44;;;;;;;;;;;15.20;99.90;;;;;;5067325;28;20531;-85
2021/08/26 04:12:10;;;;;;;;;;;15.20;99.90;;;;;;5062386;28;20628;-84
2021/08/26 04:14:36;;;;;;;;;;;15.10;99.90;;;;;;5070638;28;19958;-85
2021/08/26 04:17:02;;;;;;;;;;;15.10;99.90;;;;;;5087464;28;19920;-84
2021/08/26 04:19:28;;;;;;;;;;;15.00;99.90;;;;;;5065619;28;19922;-85
2021/08/26 04:21:54;;;;;;;;;;;15.00;99.90;;;;;;5066206;28;19912;-83
2021/08/26 04:24:19;;;;;;;;;;;15.00;99.90;;;;;;5072374;28;20222;-81
2021/08/26 04:26:45;;;;;;;;;;;15.00;99.90;;;;;;5087592;28;19923;-79
2021/08/26 04:29:11;;;;;;;;;;;15.00;99.90;;;;;;5091672;28;20276;-85
2021/08/26 04:31:36;;;;;;;;;;;15.00;99.90;;;;;;5086924;28;19919;-81
2021/08/26 04:34:02;;;;;;;;;;;15.00;99.90;;;;;;5068303;28;20322;-84
2021/08/26 04:36:27;;;;;;;;;;;14.90;99.90;;;;;;5082468;28;20338;-85
2021/08/26 04:38:53;;;;;;;;;;;14.90;99.90;;;;;;5083828;28;19919;-84
2021/08/26 04:41:19;;;;;;;;;;;14.90;99.90;;;;;;5080788;28;19916;-82
2021/08/26 04:43:45;;;;;;;;;;;14.90;99.90;;;;;;5072903;28;19959;-81
2021/08/26 04:46:10;;;;;;;;;;;14.90;99.90;;;;;;5077253;28;19927;-84
2021/08/26 04:48:36;;;;;;;;;;;14.90;99.90;;;;;;5083742;28;19917;-87
2021/08/26 04:51:01;;;;;;;;;;;14.90;99.90;;;;;;5098054;28;19908;-85
2021/08/26 04:53:27;;;;;;;;;;;14.90;99.90;;;;;;5063675;28;19913;-88
2021/08/26 04:55:52;;;;;;;;;;;14.90;99.90;;;;;;5083522;28;19908;-82
2021/08/26 04:58:18;;;;;;;;;;;14.90;99.90;;;;;;5068863;28;20291;-81
2021/08/26 05:00:44;;;;;;;;;;;14.90;99.90;;;;;;5090456;28;19912;-79
2021/08/26 05:03:09;;;;;;;;;;;14.90;99.90;;;;;;5073217;28;19920;-85
2021/08/26 05:05:35;;;;;;;;;;;15.00;99.90;;;;;;5085658;28;19916;-81
2021/08/26 05:08:00;;;;;;;;;;;15.00;99.90;;;;;;5073384;28;20441;-83
2021/08/26 05:10:26;;;;;;;;;;;15.00;99.90;;;;;;5090200;28;19912;-79
2021/08/26 05:12:51;;;;;;;;;;;15.00;99.90;;;;;;5092404;28;19920;-86
2021/08/26 05:15:17;;;;;;;;;;;15.10;99.90;;;;;;5073435;28;19962;-85
2021/08/26 05:17:42;;;;;;;;;;;15.10;99.90;;;;;;5075751;28;19939;-86
2021/08/26 05:20:08;;;;;;;;;;;15.10;99.90;;;;;;5077017;28;19919;-84
2021/08/26 05:22:34;;;;;;;;;;;15.10;99.90;;;;;;5092395;28;19988;-79
2021/08/26 05:24:59;;;;;;;;;;;15.10;99.90;;;;;;5088438;28;20295;-83
2021/08/26 05:27:25;;;;;;;;;;;15.10;99.90;;;;;;5073472;28;19915;-87
2021/08/26 05:29:50;;;;;;;;;;;15.10;99.90;;;;;;5073149;28;19968;-80
2021/08/26 05:32:16;;;;;;;;;;;15.00;99.90;;;;;;5074822;28;19920;-81
2021/08/26 05:34:42;;;;;;;;;;;15.10;99.90;;;;;;5090791;28;19912;-81
2021/08/26 05:37:08;;;;;;;;;;;15.10;99.90;;;;;;5093331;28;19935;-82
2021/08/26 05:39:34;;;;;;;;;;;15.10;99.90;;;;;;5073464;28;19958;-79
2021/08/26 05:41:59;;;;;;;;;;;15.20;99.90;;;;;;5092648;28;20253;-84
2021/08/26 05:44:25;;;;;;;;;;;15.10;99.90;;;;;;5071363;28;19920;-79
2021/08/26 05:46:51;;;;;;;;;;;15.10;99.90;;;;;;5069924;28;19935;-82
2021/08/26 05:49:16;;;;;;;;;;;15.20;99.90;;;;;;5081554;28;19927;-78
2021/08/26 05:51:42;;;;;;;;;;;15.20;99.90;;;;;;5091489;28;20218;-82
2021/08/26 05:54:07;;;;;;;;;;;15.20;99.90;;;;;;5095063;28;19912;-79
2021/08/26 05:56:33;;;;;;;;;;;15.20;99.90;;;;;;5092046;28;19913;-80
2021/08/26 05:58:59;;;;;;;;;;;15.20;99.90;;;;;;5076874;28;19999;-82
2021/08/26 06:01:28;;;;;;;;;;;15.20;99.90;;;;;;5075749;28;20334;-83
2021/08/26 06:03:54;;;;;;;;;;;15.20;99.90;;;;;;5076641;28;19916;-84
2021/08/26 06:06:20;;;;;;;;;;;15.30;99.90;;;;;;5073848;28;20390;-84
2021/08/26 06:08:45;;;;;;;;;;;15.30;99.90;;;;;;5074306;28;19969;-78
2021/08/26 06:11:11;;;;;;;;;;;15.30;99.90;;;;;;5093709;28;20056;-77
2021/08/26 06:13:36;;;;;;;;;;;15.30;99.90;;;;;;5073353;28;20230;-80
2021/08/26 06:16:02;;;;;;;;;;;15.30;99.90;;;;;;5074831;28;20015;-83
2021/08/26 06:18:28;;;;;;;;;;;15.30;99.90;;;;;;5091965;28;19912;-81
2021/08/26 06:20:53;;;;;;;;;;;15.30;99.90;;;;;;5092033;28;19919;-81
2021/08/26 06:23:19;;;;;;;;;;;15.30;99.90;;;;;;5076030;28;20041;-84
2021/08/26 06:25:44;;;;;;;;;;;15.30;99.90;;;;;;5075016;28;19916;-81
2021/08/26 06:28:10;;;;;;;;;;;15.30;99.90;;;;;;5076574;28;20211;-82
2021/08/26 06:30:35;;;;;;;;;;;15.40;99.90;;;;;;5075379;28;20003;-78
2021/08/26 06:33:01;;;;;;;;;;;15.40;99.90;;;;;;5072183;28;19912;-77
2021/08/26 06:35:27;;;;;;;;;;;15.40;99.90;;;;;;5076254;28;20269;-78
2021/08/26 06:37:52;;;;;;;;;;;15.40;99.90;;;;;;5092017;28;20199;-76
2021/08/26 06:40:18;;;;;;;;;;;15.30;99.90;;;;;;5093636;28;19912;-78
2021/08/26 06:42:44;;;;;;;;;;;15.20;99.90;;;;;;5093317;28;19971;-85
2021/08/26 06:45:10;;;;;;;;;;;15.20;99.90;;;;;;5077408;28;20010;-76
2021/08/26 06:47:35;;;;;;;;;;;15.20;99.90;;;;;;5075194;28;19951;-77
2021/08/26 06:50:01;;;;;;;;;;;15.20;99.90;;;;;;5091873;28;20016;-78
2021/08/26 06:52:27;;;;;;;;;;;15.20;99.90;;;;;;5075433;28;19912;-80
2021/08/26 06:54:52;;;;;;;;;;;15.30;99.90;;;;;;5075345;28;19996;-82
2021/08/26 06:57:18;;;;;;;;;;;15.40;99.90;;;;;;5094167;28;19920;-80
2021/08/26 06:59:43;;;;;;;;;;;15.50;99.90;;;;;;5093343;28;19958;-80
2021/08/26 07:02:09;;;;;;;;;;;15.60;99.90;;;;;;5073483;28;19913;-80
2021/08/26 07:04:35;;;;;;;;;;;15.60;99.90;;;;;;5077070;28;19928;-79
2021/08/26 07:07:00;;;;;;;;;;;15.60;99.90;;;;;;5073583;28;19916;-84
2021/08/26 07:09:26;;;;;;;;;;;15.60;99.90;;;;;;5091104;28;20327;-79
2021/08/26 07:11:51;;;;;;;;;;;15.60;99.90;;;;;;5070229;28;19923;-78
2021/08/26 07:14:17;;;;;;;;;;;15.70;99.90;;;;;;5093476;28;19943;-77
2021/08/26 07:16:43;;;;;;;;;;;15.80;99.90;;;;;;5092834;28;19963;-80
2021/08/26 07:19:08;;;;;;;;;;;15.80;99.90;;;;;;5094552;28;19970;-77
2021/08/26 07:21:34;;;;;;;;;;;15.80;99.90;;;;;;5071398;28;19981;-75
2021/08/26 07:23:59;;;;;;;;;;;15.70;99.90;;;;;;5068642;28;20477;-76
2021/08/26 07:26:25;;;;;;;;;;;15.70;99.90;;;;;;5072863;28;19962;-79
2021/08/26 07:28:52;;;;;;;;;;;15.70;99.90;;;;;;5094860;28;19916;-77
2021/08/26 07:31:18;;;;;;;;;;;15.70;99.90;;;;;;5091725;28;19920;-76
2021/08/26 07:33:44;;;;;;;;;;;15.80;99.90;;;;;;5088722;28;19912;-78
2021/08/26 07:36:09;;;;;;;;;;;15.90;99.90;;;;;;5091053;28;19912;-76
2021/08/26 07:38:35;;;;;;;;;;;16.00;99.90;;;;;;5086887;28;20329;-79
2021/08/26 07:41:01;;;;;;;;;;;16.10;99.90;;;;;;5085816;28;19920;-81
2021/08/26 07:43:30;;;;;;;;;;;16.30;99.90;;;;;;5067190;28;19944;-77
2021/08/26 07:45:56;;;;;;;;;;;16.30;99.90;;;;;;5076176;28;19935;-80
2021/08/26 07:48:22;;;;;;;;;;;16.30;99.90;;;;;;5087035;28;19916;-79
2021/08/26 07:50:48;;;;;;;;;;;16.40;99.90;;;;;;5083754;28;20377;-79
2021/08/26 07:53:14;;;;;;;;;;;16.30;99.90;;;;;;5085298;28;21331;-82
2021/08/26 07:55:39;;;;;;;;;;;16.20;99.90;;;;;;5074407;28;20021;-82
2021/08/26 07:58:05;;;;;;;;;;;16.20;99.90;;;;;;5089591;28;20290;-82
2021/08/26 08:00:31;;;;;;;;;;;16.20;99.90;;;;;;5081261;28;19912;-80
2021/08/26 08:02:56;;;;;;;;;;;16.20;99.90;;;;;;5097102;28;19919;-80
2021/08/26 08:05:22;;;;;;;;;;;16.20;99.90;;;;;;5077269;28;20030;-78
2021/08/26 08:07:47;;;;;;;;;;;16.30;99.90;;;;;;5094754;28;19912;-83
2021/08/26 08:10:13;;;;;;;;;;;16.20;99.90;;;;;;5088682;28;19912;-83
2021/08/26 08:12:39;;;;;;;;;;;16.30;99.90;;;;;;5072027;28;19916;-81
2021/08/26 08:15:05;;;;;;;;;;;16.30;99.90;;;;;;5070069;28;19912;-77
2021/08/26 08:17:30;;;;;;;;;;;16.30;99.90;;;;;;5081660;28;20214;-76
2021/08/26 08:19:56;;;;;;;;;;;16.20;99.90;;;;;;5089083;28;19970;-82
2021/08/26 08:22:22;;;;;;;;;;;16.20;99.90;;;;;;5095994;28;20289;-79
2021/08/26 08:24:47;;;;;;;;;;;16.30;99.90;;;;;;5077154;28;19997;-77
2021/08/26 08:27:13;;;;;;;;;;;16.40;99.90;;;;;;5092701;28;20007;-80
2021/08/26 08:29:38;;;;;;;;;;;16.60;99.90;;;;;;5087538;28;20282;-81
2021/08/26 08:32:04;;;;;;;;;;;16.90;99.90;;;;;;5091882;28;19912;-81
2021/08/26 08:34:30;;;;;;;;;;;16.80;99.90;;;;;;5100338;28;19912;-81
2021/08/26 08:36:55;;;;;;;;;;;16.80;99.90;;;;;;5095721;28;19915;-82
2021/08/26 08:39:21;;;;;;;;;;;16.60;99.90;;;;;;5076139;28;20074;-77
2021/08/26 08:41:47;;;;;;;;;;;16.60;99.90;;;;;;5077971;28;19923;-79
2021/08/26 08:44:13;;;;;;;;;;;16.50;99.90;;;;;;5079164;28;19916;-81
2021/08/26 08:46:39;;;;;;;;;;;16.60;99.90;;;;;;5073703;28;19925;-81
2021/08/26 08:49:07;;;;;;;;;;;16.60;99.90;;;;;;5089852;28;19909;-81
2021/08/26 08:51:32;;;;;;;;;;;16.70;99.90;;;;;;5075557;28;20347;-77
2021/08/26 08:53:58;;;;;;;;;;;16.60;99.90;;;;;;5087576;28;19916;-79
2021/08/26 08:56:26;;;;;;;;;;;16.60;99.90;;;;;;5076755;28;19969;-76
2021/08/26 08:58:55;;;;;;;;;;;16.70;99.90;;;;;;5091268;28;19912;-77
2021/08/26 09:01:20;;;;;;;;;;;16.70;99.90;;;;;;5096418;28;19916;-79
2021/08/26 09:03:46;;;;;;;;;;;16.70;99.90;;;;;;5096205;28;19931;-79
2021/08/26 09:06:11;;;;;;;;;;;16.80;99.90;;;;;;5078410;28;19919;-78
2021/08/26 09:08:37;;;;;;;;;;;16.80;99.90;;;;;;5086058;28;19912;-78
2021/08/26 09:11:12;;;;;;;;;;;16.80;99.90;;;;;;5074133;28;20299;-82
2021/08/26 09:13:38;;;;;;;;;;;16.80;99.90;;;;;;5069208;28;20212;-77
2021/08/26 09:16:04;;;;;;;;;;;16.80;99.90;;;;;;5093059;28;19915;-80
2021/08/26 09:18:30;;;;;;;;;;;16.90;99.90;;;;;;5079587;28;19913;-79
2021/08/26 09:20:58;;;;;;;;;;;17.00;99.90;;;;;;5084293;28;19916;-80
2021/08/26 09:23:26;;;;;;;;;;;17.00;99.90;;;;;;5084392;28;20280;-79
2021/08/26 09:25:53;;;;;;;;;;;17.00;99.90;;;;;;5089138;28;19916;-88
2021/08/26 09:28:26;;;;;;;;;;;17.00;99.90;;;;;;5073734;28;20264;-79
2021/08/26 09:31:10;;;;;;;;;;;17.10;99.90;;;;;;5090665;28;19923;-77
2021/08/26 09:34:08;;;;;;;;;;;17.00;99.90;;;;;;5089592;28;19924;-79
2021/08/26 09:36:35;;;;;;;;;;;17.00;99.90;;;;;;5013996;28;19917;-83
2021/08/26 09:39:05;;;;;;;;;;;17.00;99.90;;;;;;5009312;28;19941;-79
2021/08/26 09:41:38;;;;;;;;;;;17.00;99.90;;;;;;4993133;28;19999;-79
2021/08/26 09:44:04;;;;;;;;;;;17.00;99.90;;;;;;4985691;28;19925;-80
2021/08/26 09:46:31;;;;;;;;;;;17.10;99.90;;;;;;5011323;28;19984;-81
2021/08/26 09:49:07;;;;;;;;;;;17.10;99.90;;;;;;4991817;28;19918;-82
2021/08/26 09:51:33;;;;;;;;;;;17.10;99.90;;;;;;5010645;28;19929;-82
2021/08/26 09:53:59;;;;;;;;;;;17.10;99.90;;;;;;4996510;28;19917;-78
2021/08/26 09:56:24;;;;;;;;;;;17.10;99.90;;;;;;5012848;28;20344;-75
2021/08/26 09:58:54;;;;;;;;;;;17.00;99.90;;;;;;5010133;28;19972;-80
2021/08/26 10:01:21;;;;;;;;;;;17.00;99.90;;;;;;5013265;28;20256;-77
2021/08/26 10:06:13;;;;;;;;;;;17.00;99.90;;;;;;5009581;28;19942;-81
2021/08/26 10:08:39;;;;;;;;;;;17.10;99.90;;;;;;5013532;28;20017;-80
2021/08/26 10:11:07;;;;;;;;;;;17.10;99.90;;;;;;5018161;28;19925;-89
2021/08/26 10:13:32;;;;;;;;;;;17.20;99.90;;;;;;5067132;28;19919;-82
2021/08/26 10:15:58;;;;;;;;;;;17.10;99.90;;;;;;5068806;28;19921;-82
2021/08/26 10:18:24;;;;;;;;;;;17.10;99.90;;;;;;5046748;28;19924;-83
2021/08/26 10:20:50;;;;;;;;;;;17.10;99.90;;;;;;5056375;28;20215;-82
2021/08/26 10:23:16;;;;;;;;;;;17.10;99.90;;;;;;5074052;28;19920;-83
2021/08/26 10:25:45;;;;;;;;;;;17.10;99.90;;;;;;5073436;28;19955;-77
2021/08/26 10:28:11;;;;;;;;;;;17.10;99.90;;;;;;5072088;28;20008;-80
2021/08/26 10:30:39;;;;;;;;;;;17.10;99.90;;;;;;5055507;28;19991;-77
2021/08/26 10:33:13;;;;;;;;;;;17.10;99.90;;;;;;5056337;28;19927;-79
2021/08/26 10:35:56;;;;;;;;;;;17.10;99.90;;;;;;5055404;28;19960;-84
2021/08/26 10:38:25;;;;;;;;;;;17.20;99.90;;;;;;5054299;28;20007;-84
2021/08/26 10:40:51;;;;;;;;;;;17.20;99.90;;;;;;5057951;28;20010;-84
2021/08/26 10:43:49;;;;;;;;;;;17.20;99.90;;;;;;5054111;28;19971;-81
2021/08/26 10:46:14;;;;;;;;;;;17.20;99.90;;;;;;5004536;28;19925;-80
2021/08/26 10:48:59;;;;;;;;;;;17.30;99.90;;;;;;5012747;28;19927;-88
2021/08/26 10:51:45;;;;;;;;;;;17.30;99.90;;;;;;5024310;28;19913;-83
2021/08/26 10:54:27;;;;;;;;;;;17.30;99.90;;;;;;5010818;28;19922;-86
2021/08/26 10:56:53;;;;;;;;;;;17.50;99.90;;;;;;5014687;28;19956;-84
2021/08/26 10:59:29;;;;;;;;;;;17.50;99.90;;;;;;5029493;28;19944;-78
2021/08/26 11:01:54;;;;;;;;;;;17.60;99.90;;;;;;5032090;28;19917;-81
2021/08/26 11:04:37;;;;;;;;;;;17.50;99.90;;;;;;5031142;28;20236;-79
2021/08/26 11:07:04;;;;;;;;;;;17.50;99.90;;;;;;5031246;28;20293;-78
2021/08/26 11:09:33;;;;;;;;;;;17.40;99.90;;;;;;5031887;28;19917;-82
2021/08/26 11:12:05;;;;;;;;;;;17.40;99.90;;;;;;5011610;28;20403;-83
2021/08/26 11:14:34;;;;;;;;;;;17.40;99.90;;;;;;5028808;28;20036;-84
2021/08/26 11:17:02;;;;;;;;;;;17.40;99.90;;;;;;5015752;28;19967;-79
2021/08/26 11:19:29;;;;;;;;;;;17.60;99.90;;;;;;5016213;28;19952;-81
2021/08/26 11:21:55;;;;;;;;;;;17.60;99.90;;;;;;5065048;28;19982;-85
2021/08/26 11:24:22;;;;;;;;;;;17.70;99.90;;;;;;5092293;28;20307;-85
2021/08/26 11:26:54;;;;;;;;;;;17.80;99.90;;;;;;5093639;28;19912;-83
2021/08/26 11:29:20;;;;;;;;;;;17.90;99.90;;;;;;5076711;28;19920;-80
2021/08/26 11:31:54;;;;;;;;;;;17.80;99.90;;;;;;5091410;28;20272;-83
2021/08/26 11:34:21;;;;;;;;;;;17.80;99.90;;;;;;5081441;28;19912;-81
2021/08/26 11:37:00;;;;;;;;;;;17.80;99.90;;;;;;5076940;28;19980;-79
2021/08/26 11:39:26;;;;;;;;;;;17.80;99.90;;;;;;5098782;28;19916;-80
2021/08/26 11:41:52;;;;;;;;;;;17.80;99.90;;;;;;5088557;28;19913;-83
2021/08/26 11:44:17;;;;;;;;;;;17.80;99.90;;;;;;5080032;28;19939;-82
2021/08/26 11:46:43;;;;;;;;;;;17.80;99.90;;;;;;5075279;28;20235;-81
2021/08/26 11:49:09;;;;;;;;;;;17.80;99.90;;;;;;5064493;28;19912;-81
2021/08/26 11:51:35;;;;;;;;;;;17.50;99.90;;;;;;5080626;28;20319;-81
2021/08/26 11:54:17;;;;;;;;;;;17.50;99.90;;;;;;5099289;28;19916;-88
2021/08/26 11:56:44;;;;;;;;;;;17.50;99.90;;;;;;5073790;28;19931;-89
2021/08/26 11:59:42;;;;;;;;;;;17.50;99.90;;;;;;5073900;28;19912;-81
2021/08/26 12:02:27;;;;;;;;;;;17.60;99.90;;;;;;5017319;28;19916;-83
2021/08/26 12:04:54;;;;;;;;;;;17.70;99.90;;;;;;5029935;28;20020;-84
2021/08/26 12:07:36;;;;;;;;;;;17.80;99.90;;;;;;5034190;28;20330;-84
2021/08/26 12:10:11;;;;;;;;;;;17.90;99.90;;;;;;5027040;28;20251;-86
2021/08/26 12:12:37;;;;;;;;;;;18.10;99.90;;;;;;5027043;28;19943;-88
2021/08/26 12:15:04;;;;;;;;;;;18.20;99.90;;;;;;5014863;28;19917;-78
2021/08/26 12:17:33;;;;;;;;;;;18.20;99.90;;;;;;5040975;28;19957;-81
2021/08/26 12:19:58;;;;;;;;;;;18.10;99.90;;;;;;5029749;28;19913;-84
2021/08/26 12:22:25;;;;;;;;;;;18.00;99.90;;;;;;5029059;28;20309;-85
2021/08/26 12:24:55;;;;;;;;;;;17.90;99.90;;;;;;5025152;28;19920;-85
2021/08/26 12:27:22;;;;;;;;;;;18.00;99.90;;;;;;5010059;28;19964;-85
2021/08/26 12:29:48;;;;;;;;;;;17.90;99.90;;;;;;5013791;28;19950;-81
2021/08/26 12:32:22;;;;;;;;;;;17.90;99.90;;;;;;5029672;28;19964;-84
2021/08/26 12:34:48;;;;;;;;;;;17.80;99.90;;;;;;5017368;28;19948;-84
2021/08/26 12:37:14;;;;;;;;;;;17.80;99.90;;;;;;5029785;28;19955;-78
2021/08/26 12:39:40;;;;;;;;;;;17.80;99.90;;;;;;5076436;28;20326;-83
2021/08/26 12:42:16;;;;;;;;;;;17.80;99.90;;;;;;5087278;28;19968;-86
2021/08/26 12:45:01;;;;;;;;;;;17.90;99.90;;;;;;5077043;28;19927;-80
2021/08/26 12:47:30;;;;;;;;;;;17.90;99.90;;;;;;5087464;28;20003;-81
2021/08/26 12:49:57;;;;;;;;;;;17.90;99.90;;;;;;5091717;28;20279;-85
2021/08/26 12:52:36;;;;;;;;;;;17.90;99.90;;;;;;5091920;28;19995;-81
2021/08/26 12:55:05;;;;;;;;;;;18.10;99.90;;;;;;5075536;28;19920;-81
2021/08/26 12:57:33;;;;;;;;;;;18.10;99.90;;;;;;5073354;28;19916;-81
2021/08/26 12:59:58;;;;;;;;;;;18.00;99.90;;;;;;5087515;28;19916;-80
2021/08/26 13:02:24;;;;;;;;;;;18.10;99.90;;;;;;5091296;28;19938;-81
2021/08/26 13:05:03;;;;;;;;;;;18.10;99.90;;;;;;5091071;28;20311;-80
2021/08/26 13:07:29;;;;;;;;;;;18.20;99.90;;;;;;5078858;28;19916;-78
2021/08/26 13:09:58;;;;;;;;;;;18.20;99.90;;;;;;5086057;28;19916;-77
2021/08/26 13:12:25;;;;;;;;;;;18.30;99.90;;;;;;5075135;28;19999;-81
2021/08/26 13:14:51;;;;;;;;;;;18.10;99.90;;;;;;5093026;28;19908;-82
2021/08/26 13:17:18;;;;;;;;;;;18.20;99.90;;;;;;5101323;28;19959;-86
2021/08/26 13:19:43;;;;;;;;;;;18.20;99.90;;;;;;5085426;28;19916;-77
2021/08/26 13:22:20;;;;;;;;;;;18.20;99.90;;;;;;5083230;28;20326;-81
2021/08/26 13:24:46;;;;;;;;;;;18.20;99.90;;;;;;5067214;28;19927;-85
2021/08/26 13:27:11;;;;;;;;;;;18.30;99.90;;;;;;5085293;28;19912;-83
2021/08/26 13:29:37;;;;;;;;;;;18.50;99.90;;;;;;5068813;28;19923;-84
2021/08/26 13:32:03;;;;;;;;;;;18.50;99.90;;;;;;5094052;28;20199;-84
2021/08/26 13:34:28;;;;;;;;;;;18.50;99.90;;;;;;5086495;28;20360;-85
2021/08/26 13:36:54;;;;;;;;;;;18.50;99.90;;;;;;5077593;28;20195;-78
2021/08/26 13:39:20;;;;;;;;;;;18.60;99.90;;;;;;5086428;28;19916;-86
2021/08/26 13:41:47;;;;;;;;;;;18.80;99.90;;;;;;5072779;28;19947;-85
2021/08/26 13:44:12;;;;;;;;;;;18.90;99.90;;;;;;5065954;28;19966;-84
2021/08/26 13:46:39;;;;;;;;;;;19.00;99.90;;;;;;5073897;28;19968;-80
2021/08/26 13:49:04;;;;;;;;;;;18.90;99.90;;;;;;5058405;28;19912;-81
2021/08/26 13:51:30;;;;;;;;;;;18.80;99.90;;;;;;5052200;28;19974;-85
2021/08/26 13:53:55;;;;;;;;;;;18.70;99.90;;;;;;5069920;28;19944;-78
2021/08/26 13:56:21;;;;;;;;;;;18.80;99.90;;;;;;5065937;28;19913;-86
2021/08/26 13:58:47;;;;;;;;;;;18.80;99.90;;;;;;5051723;28;19971;-78
2021/08/26 14:01:13;;;;;;;;;;;18.90;99.90;;;;;;5078009;28;20215;-82
2021/08/26 14:03:39;;;;;;;;;;;19.00;99.90;;;;;;5059275;28;19916;-80
2021/08/26 14:06:05;;;;;;;;;;;18.90;99.90;;;;;;5066570;28;20211;-90
2021/08/26 14:08:31;;;;;;;;;;;18.80;99.90;;;;;;5052430;28;19920;-86
2021/08/26 14:10:56;;;;;;;;;;;18.70;99.90;;;;;;5069033;28;19913;-87
2021/08/26 14:13:22;;;;;;;;;;;18.80;99.90;;;;;;5059151;28;19966;-84
2021/08/26 14:15:47;;;;;;;;;;;18.80;99.90;;;;;;5076946;28;20220;-82
2021/08/26 14:18:13;;;;;;;;;;;18.80;99.90;;;;;;5067239;28;20219;-79
2021/08/26 14:20:38;;;;;;;;;;;18.70;99.90;;;;;;5046940;28;19916;-83